NEODyS-2

Near Earth Objects - Dynamic Site
NEODyS ∴ Observatories ∴ Site 691 ∴ Obs & residuals
Contact »
691  ▹ 
OBSERVATIONS AND RESIDUALS

691-Steward Observatory, Kitt Peak-Spacewatch

Detections | Residuals | Detections & Residuals

[1-200] [201-400] [401-600] [601-800] [801-1000] [1001-1200] [1201-1400] [1401-1600] [1601-1800] [1801-2000] [2001-2200] [2201-2400] [2401-2600] [2601-2800] [2801-3000] [3001-3200] [3201-3400] [3401-3600] [3601-3800] [3801-4000] [4001-4200] [4201-4400] [4401-4600] [4601-4800] [4801-5000] [5001-5200] [5201-5400] [5401-5600] [5601-5800] [5801-6000] [6001-6200] [6201-6400] [6401-6600] [6601-6800] [6801-7000] [7001-7200] [7201-7400] [7401-7600] [7601-7800] [7801-8000] [8001-8200] [8201-8400] [8401-8600] [8601-8800] [8801-9000] [9001-9200] [9201-9400] [9401-9600] [9601-9800] [9801-10000] [10001-10200] [10201-10400] [10401-10600] [10601-10800] [10801-11000] [11001-11200] [11201-11400] [11401-11600] [11601-11800] [11801-12000] [12001-12200] [12201-12400] [12401-12600] [12601-12800] [12801-13000] [13001-13200] [13201-13400] [13401-13600] [13601-13800] [13801-14000] [14001-14200] [14201-14400] [14401-14600] [14601-14800] [14801-15000] [15001-15200] [15201-15400] [15401-15600] [15601-15800] [15801-16000] [16001-16200] [16201-16400] [16401-16600] [16601-16800] [16801-17000] [17001-17200] [17201-17400] [17401-17600] [17601-17800] [17801-18000] [18001-18200] [18201-18400] [18401-18600] [18601-18800] [18801-19000] [19001-19200] [19201-19400] [19401-19600] [19601-19800] [19801-20000] [20001-20200] [20201-20400] [20401-20600] [20601-20800] [20801-21000] [21001-21200] [21201-21400] [21401-21600] [21601-21800] [21801-22000] [22001-22200] [22201-22400] [22401-22600] [22601-22800] [22801-23000] [23001-23200] [23201-23400] [23401-23600] [23601-23800] [23801-24000] [24001-24200] [24201-24400] [24401-24600] [24601-24800] [24801-25000] [25001-25200] [25201-25400] [25401-25600] [25601-25800] [25801-26000] [26001-26200] [26201-26400] [26401-26600] [26601-26800] [26801-27000] [27001-27200] [27201-27400] [27401-27600] [27601-27800] [27801-28000] [28001-28200] [28201-28400] [28401-28600] [28601-28800] [28801-29000] [29001-29200] [29201-29400] [29401-29600] [29601-29800] [29801-30000] [30001-30200] [30201-30400] [30401-30600] [30601-30800] [30801-31000] [31001-31200] [31201-31400] [31401-31600] [31601-31800] [31801-32000] [32001-32200] [32201-32400] [32401-32600] [32601-32800] [32801-33000] [33001-33200] [33201-33400] [33401-33600] [33601-33800] [33801-34000] [34001-34200] [34201-34400] [34401-34600] [34601-34800] [34801-35000] [35001-35200] [35201-35400] [35401-35600] [35601-35800] [35801-36000] [36001-36200] [36201-36400] [36401-36600] [36601-36800] [36801-37000] [37001-37200] [37201-37400] [37401-37600] [37601-37800] [37801-38000] [38001-38200] [38201-38400] [38401-38600] [38601-38800] [38801-39000] [39001-39200] [39201-39400] [39401-39600] [39601-39800] [39801-40000] [40001-40200] [40201-40400] [40401-40600] [40601-40800] [40801-41000] [41001-41200] [41201-41400] [41401-41600] [41601-41800] [41801-42000] [42001-42200] [42201-42400] [42401-42600] [42601-42800] [42801-43000] [43001-43200] [43201-43400] [43401-43600] [43601-43800] [43801-44000] [44001-44200] [44201-44400] [44401-44600] [44601-44800] [44801-45000] [45001-45200] [45201-45400] [45401-45600] [45601-45800] [45801-46000] [46001-46200] [46201-46400] [46401-46600] [46601-46800] [46801-47000] [47001-47200] [47201-47400] [47401-47600] [47601-47800] [47801-48000] [48001-48200] [48201-48400] [48401-48600] [48601-48800] [48801-49000] [49001-49200] [49201-49400] [49401-49600] [49601-49800] [49801-50000] [50001-50200] [50201-50388]

Designation T Tech N Date Right Ascension Declination Apparent Magnitude Star Catalog Site code χ Used A Used M
yr-mo-day precision hr:min:sec precision rms F bias residual deg min sec precision rms F bias residual mag/col rms residual
2016WQ O C H 2016-11-25.32777 1.000E-05 02:55:54.720 1.500E-01 0.500 F -0.349 0.526 +12° 24' 07.90" 1.000E-01 0.500 F 0.276 0.193 19.8 V 0.70 0.17 o 691 1.16 Yes Yes
2016WO1 O C H 2016-11-25.32967 1.000E-05 02:57:58.760 1.500E-01 0.500 F -0.172 -0.296 +14° 11' 59.70" 1.000E-01 0.500 F 0.319 -0.238 20.3 V 0.70 0.39 o 691 0.76 Yes Yes
2016WQ O C H 2016-11-25.33663 1.000E-05 02:55:52.310 1.500E-01 0.500 F -0.349 0.426 +12° 22' 35.30" 1.000E-01 0.500 F 0.276 -0.191 19.8 V 0.70 0.17 o 691 0.96 Yes Yes
2016WO1 O C H 2016-11-25.33858 1.000E-05 02:57:57.270 1.500E-01 0.500 F -0.172 0.128 +14° 12' 06.90" 1.000E-01 0.500 F 0.319 -0.385 20.4 V 0.70 0.49 o 691 0.81 Yes Yes
2016WQ O C H 2016-11-25.34553 1.000E-05 02:55:49.900 1.500E-01 0.500 F -0.349 0.306 +12° 21' 01.60" 1.000E-01 0.500 F 0.276 -0.859 o 691 1.93 Yes No
2016WO1 O C H 2016-11-25.34749 1.000E-05 02:57:55.720 1.500E-01 0.500 F -0.172 -0.342 +14° 12' 14.20" 1.000E-01 0.500 F 0.319 -0.424 20.1 V 0.70 0.19 o 691 1.10 Yes Yes
2016VQ1 O C H 2016-11-25.35102 1.000E-05 03:15:29.540 1.500E-01 0.500 F -0.239 -0.539 +12° 50' 13.80" 1.000E-01 0.500 F 0.317 -0.428 21.7 V 0.70 -0.14 o 691 1.40 Yes Yes
2016VQ1 O C H 2016-11-25.35835 1.000E-05 03:15:29.220 1.500E-01 0.500 F -0.239 0.238 +12° 50' 12.60" 1.000E-01 0.500 F 0.317 1.210 21.7 V 0.70 -0.14 o 691 2.51 Yes Yes
2016VQ1 O C H 2016-11-25.36567 1.000E-05 03:15:28.810 1.500E-01 0.500 F -0.239 -0.320 +12° 50' 08.20" 1.000E-01 0.500 F 0.317 -0.352 21.8 V 0.70 -0.04 o 691 0.96 Yes Yes
2016WS3 O C H 2016-11-25.42906 1.000E-05 04:15:23.080 1.500E-01 0.500 F -0.241 0.053 +10° 20' 10.50" 1.000E-01 0.500 F 0.182 -0.332 20.9 V 0.70 0.42 o 691 0.68 Yes Yes
2016WS3 O C H 2016-11-25.43823 1.000E-05 04:15:21.410 1.500E-01 0.500 F -0.241 0.832 +10° 20' 38.10" 1.000E-01 0.500 F 0.182 -0.986 21.1 V 0.70 0.62 o 691 2.62 Yes Yes
2016WS3 O C H 2016-11-25.44746 1.000E-05 04:15:19.610 1.500E-01 0.500 F -0.241 -0.204 +10° 21' 07.40" 1.000E-01 0.500 F 0.182 -0.108 21.2 V 0.70 0.72 o 691 0.47 Yes Yes
2016VX5 O C H 2016-11-25.49195 1.000E-05 05:39:35.810 1.500E-01 0.500 F -0.209 -0.170 +13° 54' 33.80" 1.000E-01 0.500 F 0.139 0.548 20.8 V 0.70 0.21 o 691 1.24 Yes Yes
2016VX5 O C H 2016-11-25.50266 1.000E-05 05:39:35.250 1.500E-01 0.500 F -0.209 0.183 +13° 53' 35.50" 1.000E-01 0.500 F 0.139 -0.023 20.8 V 0.70 0.21 o 691 0.40 Yes Yes
2016VX5 O C H 2016-11-25.51344 1.000E-05 05:39:34.640 1.500E-01 0.500 F -0.209 -0.219 +13° 52' 36.90" 1.000E-01 0.500 F 0.139 -0.510 21.2 V 0.70 0.61 o 691 1.19 Yes Yes
2012KJ11 O C H 2016-11-26.07315 1.000E-05 20:12:41.320 1.500E-01 0.500 F -0.004 0.463 +00° 20' 15.50" 1.000E-01 0.500 F 0.084 -0.286 19.4 V 0.70 0.28 o 691 1.09 Yes Yes
2004SB56 O C H 2016-11-26.07659 1.000E-05 20:34:42.150 1.500E-01 0.500 F -0.017 0.335 +11° 37' 16.60" 1.000E-01 0.500 F 0.301 -1.113 20.7 V 0.70 -0.09 o 691 2.39 Yes Yes
2012KJ11 O C H 2016-11-26.08122 1.000E-05 20:12:43.320 1.500E-01 0.500 F -0.004 0.152 +00° 20' 38.30" 1.000E-01 0.500 F 0.084 -0.346 19.1 V 0.70 -0.02 o 691 0.77 Yes Yes
2004SB56 O C H 2016-11-26.08463 1.000E-05 20:34:43.360 1.500E-01 0.500 F -0.017 -0.237 +11° 37' 19.80" 1.000E-01 0.500 F 0.301 -0.847 o 691 1.78 Yes No
2012KJ11 O C H 2016-11-26.08928 1.000E-05 20:12:45.330 1.500E-01 0.500 F -0.004 0.020 +00° 21' 00.90" 1.000E-01 0.500 F 0.084 -0.574 19.2 V 0.70 0.08 o 691 1.18 Yes Yes
2004SB56 O C H 2016-11-26.09267 1.000E-05 20:34:44.610 1.500E-01 0.500 F -0.017 -0.238 +11° 37' 23.50" 1.000E-01 0.500 F 0.301 -0.076 21.2 V 0.70 0.41 o 691 0.50 Yes Yes
2016WJ8 O C H 2016-11-26.09507 1.000E-05 21:47:51.930 1.500E-01 0.500 F -0.013 -0.973 +14° 12' 41.90" 1.000E-01 0.500 F 0.287 0.259 20.9 V 0.70 0.24 o 691 2.03 Yes Yes
2007CA19 O C H 2016-11-26.09816 1.000E-05 22:22:32.030 1.500E-01 0.500 F -0.161 0.092 -18° 15' 22.90" 1.000E-01 0.500 F 0.153 -0.300 19.8 V 0.70 0.13 o 691 0.63 Yes Yes
2016WJ8 O C H 2016-11-26.10105 1.000E-05 21:47:53.470 1.500E-01 0.500 F -0.013 0.065 +14° 12' 42.20" 1.000E-01 0.500 F 0.287 -0.350 o 691 0.72 Yes No
2007CA19 O C H 2016-11-26.10411 1.000E-05 22:22:33.900 1.500E-01 0.500 F -0.161 0.052 -18° 15' 13.60" 1.000E-01 0.500 F 0.153 -0.187 19.9 V 0.70 0.23 o 691 0.39 Yes Yes
2016WJ8 O C H 2016-11-26.10699 1.000E-05 21:47:55.010 1.500E-01 0.500 F -0.013 1.244 +14° 12' 42.80" 1.000E-01 0.500 F 0.287 -0.650 20.9 V 0.70 0.24 o 691 2.82 Yes Yes
2007CA19 O C H 2016-11-26.11002 1.000E-05 22:22:35.760 1.500E-01 0.500 F -0.161 0.051 -18° 15' 04.20" 1.000E-01 0.500 F 0.153 0.083 o 691 0.20 Yes No
2012UA34 O C H 2016-11-26.11529 1.000E-05 23:06:39.400 1.500E-01 0.500 F -0.152 -0.021 +19° 42' 17.40" 1.000E-01 0.500 F 0.234 -0.187 20.9 V 0.70 0.44 o 691 0.37 Yes Yes
2012UA34 O C H 2016-11-26.12403 1.000E-05 23:06:40.520 1.500E-01 0.500 F -0.152 0.928 +19° 42' 12.20" 1.000E-01 0.500 F 0.234 -0.091 20.9 V 0.70 0.44 o 691 1.88 Yes Yes
2012UA34 O C H 2016-11-26.13277 1.000E-05 23:06:41.600 1.500E-01 0.500 F -0.152 1.307 +19° 42' 06.60" 1.000E-01 0.500 F 0.234 -0.382 21.3 V 0.70 0.84 o 691 2.74 Yes Yes
2016LX48 O C H 2016-11-26.28350 1.000E-05 01:52:26.040 1.500E-01 0.500 F -0.134 0.740 +26° 37' 33.10" 1.000E-01 0.500 F 0.292 0.191 20.6 V 0.70 0.39 o 691 1.53 Yes Yes
2016LX48 O C H 2016-11-26.29115 1.000E-05 01:52:26.470 1.500E-01 0.500 F -0.134 1.879 +26° 37' 28.50" 1.000E-01 0.500 F 0.292 -0.400 21.1 V 0.70 0.89 o 691 3.84 No Yes
2016LX48 O C H 2016-11-26.29879 1.000E-05 01:52:26.660 1.500E-01 0.500 F -0.134 -0.209 +26° 37' 25.00" 1.000E-01 0.500 F 0.292 0.115 20.7 V 0.70 0.49 o 691 0.48 Yes Yes
2007VM184 O C H 2016-11-26.33425 1.000E-05 03:10:16.250 1.500E-01 0.500 F -0.156 -0.666 +03° 00' 30.00" 1.000E-01 0.500 F 0.192 0.167 17.8 V 0.70 0.38 o 691 1.41 Yes Yes
2016VL3 O C H 2016-11-26.34324 1.000E-05 03:55:08.690 1.500E-01 0.500 F -0.192 0.561 +23° 21' 33.30" 1.000E-01 0.500 F 0.265 -0.945 o 691 2.23 Yes No
2007VM184 O C H 2016-11-26.34519 1.000E-05 03:10:06.230 1.500E-01 0.500 F -0.156 0.515 +03° 01' 18.90" 1.000E-01 0.500 F 0.192 -0.274 18.4 V 0.70 0.98 o 691 1.20 Yes Yes
2016VL3 O C H 2016-11-26.35422 1.000E-05 03:55:08.340 1.500E-01 0.500 F -0.192 0.866 +23° 21' 46.10" 1.000E-01 0.500 F 0.265 -0.668 o 691 2.21 Yes No
2007VM184 O C H 2016-11-26.35615 1.000E-05 03:09:56.130 1.500E-01 0.500 F -0.156 0.844 +03° 02' 08.40" 1.000E-01 0.500 F 0.192 -0.267 18.3 V 0.70 0.88 o 691 1.82 Yes Yes
2016VL3 O C H 2016-11-26.36517 1.000E-05 03:55:08.020 1.500E-01 0.500 F -0.192 1.451 +23° 21' 58.80" 1.000E-01 0.500 F 0.265 -0.344 o 691 3.01 Yes No
2016NV O C H 2016-12-01.07477 1.000E-05 21:28:29.960 1.500E-01 0.500 F -0.043 -1.278 +08° 24' 27.90" 1.000E-01 0.500 F 0.276 0.086 19.7 V 0.70 -0.20 o 691 2.57 Yes Yes
2016NV O C H 2016-12-01.08227 1.000E-05 21:28:32.740 1.500E-01 0.500 F -0.043 0.132 +08° 24' 17.00" 1.000E-01 0.500 F 0.276 -0.073 20.2 V 0.70 0.30 o 691 0.30 Yes Yes
2016NV O C H 2016-12-01.08977 1.000E-05 21:28:35.210 1.500E-01 0.500 F -0.043 -3.093 +08° 24' 06.80" 1.000E-01 0.500 F 0.276 0.479 20.1 V 0.70 0.20 o 691 6.23 No Yes
2007CA19 O C H 2016-12-01.10269 1.000E-05 22:46:57.960 1.500E-01 0.500 F -0.171 0.078 -16° 09' 57.00" 1.000E-01 0.500 F 0.228 -0.017 20.0 V 0.70 0.11 o 691 0.16 Yes Yes
2007CA19 O C H 2016-12-01.11020 1.000E-05 22:46:59.960 1.500E-01 0.500 F -0.171 0.112 -16° 09' 45.30" 1.000E-01 0.500 F 0.228 0.679 19.9 V 0.70 0.01 o 691 1.38 Yes Yes
2007CA19 O C H 2016-12-01.11808 1.000E-05 22:47:02.010 1.500E-01 0.500 F -0.171 -0.549 -16° 09' 34.10" 1.000E-01 0.500 F 0.228 0.329 20.3 V 0.70 0.41 o 691 1.29 Yes Yes
Phaethon O C 2016-12-01.12199 1.000E-05 23:11:49.660 1.500E-01 0.500 F -0.063 -0.003 +24° 30' 01.70" 1.000E-01 0.500 F 0.305 0.039 17.4 V 0.70 0.07 o 691 0.08 Yes Yes
1999AQ10 O C 2016-12-01.12199 1.000E-05 23:12:50.180 1.500E-01 0.500 F -0.053 -0.064 +23° 52' 30.80" 1.000E-01 0.500 F 0.268 0.068 19.9 V 0.70 -0.08 o 691 0.19 Yes Yes
2012UA34 O C H 2016-12-01.12427 1.000E-05 23:16:32.400 1.500E-01 0.500 F -0.141 0.339 +19° 01' 20.90" 1.000E-01 0.500 F 0.363 -0.637 o 691 1.45 Yes No
2004QD14 O C 2016-12-01.12744 1.000E-05 23:29:15.620 1.500E-01 0.500 F -0.231 -0.162 -12° 26' 41.80" 1.000E-01 0.500 F 0.353 0.027 20.4 V 0.70 -0.04 o 691 0.33 Yes Yes
1999AQ10 O C 2016-12-01.13055 1.000E-05 23:12:52.090 1.500E-01 0.500 F -0.053 -0.138 +23° 52' 29.30" 1.000E-01 0.500 F 0.268 0.251 20.1 V 0.70 0.12 o 691 0.57 Yes Yes
Phaethon O C 2016-12-01.13055 1.000E-05 23:11:50.280 1.500E-01 0.500 F -0.063 -0.197 +24° 29' 52.70" 1.000E-01 0.500 F 0.305 -0.034 17.5 V 0.70 0.17 o 691 0.40 Yes Yes
2012UA34 O C H 2016-12-01.13283 1.000E-05 23:16:33.290 1.500E-01 0.500 F -0.141 0.181 +19° 01' 17.90" 1.000E-01 0.500 F 0.363 -0.219 20.9 V 0.70 0.08 o 691 0.57 Yes Yes
2004QD14 O C 2016-12-01.13568 1.000E-05 23:29:15.010 1.500E-01 0.500 F -0.231 -0.444 -12° 26' 33.00" 1.000E-01 0.500 F 0.353 0.186 20.5 V 0.70 0.06 o 691 0.97 Yes Yes
1999AQ10 O C 2016-12-01.13879 1.000E-05 23:12:53.920 1.500E-01 0.500 F -0.053 -0.345 +23° 52' 27.40" 1.000E-01 0.500 F 0.268 0.000 20.0 V 0.70 0.02 o 691 0.69 Yes Yes
Phaethon O C 2016-12-01.13879 1.000E-05 23:11:50.900 1.500E-01 0.500 F -0.063 -0.073 +24° 29' 44.10" 1.000E-01 0.500 F 0.305 -0.036 17.6 V 0.70 0.27 o 691 0.16 Yes Yes
2012UA34 O C H 2016-12-01.14110 1.000E-05 23:16:34.150 1.500E-01 0.500 F -0.141 0.022 +19° 01' 14.70" 1.000E-01 0.500 F 0.363 -0.107 20.8 V 0.70 -0.02 o 691 0.22 Yes Yes
2004QD14 O C 2016-12-01.14395 1.000E-05 23:29:14.450 1.500E-01 0.500 F -0.231 0.016 -12° 26' 24.50" 1.000E-01 0.500 F 0.353 -0.001 20.7 V 0.70 0.26 o 691 0.03 Yes Yes
2003WR21 O C 2016-12-01.18034 1.000E-05 01:49:30.720 1.500E-01 0.500 F -0.161 -0.251 -04° 34' 25.50" 1.000E-01 0.500 F 0.063 0.001 19.3 V 0.70 -0.20 o 691 0.50 Yes Yes
2003WR21 O C 2016-12-01.18382 1.000E-05 01:49:30.310 1.500E-01 0.500 F -0.161 -0.146 -04° 34' 22.40" 1.000E-01 0.500 F 0.063 -0.016 19.3 V 0.70 -0.20 o 691 0.29 Yes Yes
2003WR21 O C 2016-12-01.18731 1.000E-05 01:49:29.910 1.500E-01 0.500 F -0.161 0.126 -04° 34' 19.30" 1.000E-01 0.500 F 0.063 -0.042 19.3 V 0.70 -0.20 o 691 0.27 Yes Yes
2012YH7 O C H 2016-12-01.19083 1.000E-05 03:44:23.580 1.500E-01 0.500 F -0.258 -0.490 -20° 24' 28.00" 1.000E-01 0.500 F -0.063 -0.219 20.8 V 0.70 0.67 o 691 1.17 Yes Yes
2012YH7 O C H 2016-12-01.19768 1.000E-05 03:44:23.110 1.500E-01 0.500 F -0.258 0.726 -20° 24' 03.80" 1.000E-01 0.500 F -0.063 -0.321 20.7 V 0.70 0.57 o 691 1.67 Yes Yes
2012YH7 O C H 2016-12-01.20461 1.000E-05 03:44:22.480 1.500E-01 0.500 F -0.258 -0.206 -20° 23' 38.40" 1.000E-01 0.500 F -0.063 0.485 20.8 V 0.70 0.67 o 691 1.24 Yes Yes
2012WK4 O C 2016-12-01.21237 1.000E-05 04:38:33.220 1.500E-01 0.500 F -0.156 -0.807 +02° 58' 43.60" 1.000E-01 0.500 F 0.116 0.041 20.6 V 0.70 0.46 o 691 1.63 Yes Yes
2012UK171 O C 2016-12-01.21508 1.000E-05 03:21:38.760 1.500E-01 0.500 F -0.309 -0.777 +19° 35' 22.50" 1.000E-01 0.500 F 0.337 -0.251 19.8 V 0.70 0.36 o 691 1.64 Yes Yes
2012WK4 O C 2016-12-01.21949 1.000E-05 04:38:31.950 1.500E-01 0.500 F -0.156 -1.880 +02° 58' 47.60" 1.000E-01 0.500 F 0.116 -0.585 20.1 V 0.70 -0.04 o 691 3.90 No Yes
2012UK171 O C 2016-12-01.22220 1.000E-05 03:21:34.930 1.500E-01 0.500 F -0.309 -0.620 +19° 35' 01.60" 1.000E-01 0.500 F 0.337 -0.299 19.6 V 0.70 0.15 o 691 1.38 Yes Yes
2012WK4 O C 2016-12-01.22664 1.000E-05 04:38:30.850 1.500E-01 0.500 F -0.156 -0.307 +02° 58' 53.30" 1.000E-01 0.500 F 0.116 0.471 20.5 V 0.70 0.36 o 691 1.13 Yes Yes
2012UK171 O C 2016-12-01.22935 1.000E-05 03:21:31.090 1.500E-01 0.500 F -0.309 -0.350 +19° 34' 40.60" 1.000E-01 0.500 F 0.337 -0.285 19.6 V 0.70 0.15 o 691 0.91 Yes Yes
2012SA22 O C 2016-12-01.38583 1.000E-05 07:47:36.190 1.500E-01 0.500 F -0.008 -0.097 +18° 21' 14.00" 1.000E-01 0.500 F 0.311 -0.079 19.2 V 0.70 -0.26 o 691 0.25 Yes Yes
2012SA22 O C 2016-12-01.40437 1.000E-05 07:47:34.520 1.500E-01 0.500 F -0.008 -0.303 +18° 20' 30.90" 1.000E-01 0.500 F 0.311 -0.159 19.3 V 0.70 -0.16 o 691 0.69 Yes Yes
2012SA22 O C 2016-12-01.42291 1.000E-05 07:47:32.820 1.500E-01 0.500 F -0.008 -0.887 +18° 19' 46.60" 1.000E-01 0.500 F 0.311 -1.391 19.0 V 0.70 -0.46 o 691 3.29 No Yes
Phaethon O C 2016-12-02.09191 1.000E-05 23:13:04.200 1.500E-01 0.500 F -0.063 -1.367 +24° 13' 34.20" 1.000E-01 0.500 F 0.305 0.025 17.1 V 0.70 -0.27 o 691 2.73 Yes Yes
1999AQ10 O C 2016-12-02.09191 1.000E-05 23:16:37.080 1.500E-01 0.500 F -0.053 -0.619 +23° 49' 39.00" 1.000E-01 0.500 F 0.268 -0.174 20.1 V 0.70 0.09 o 691 1.29 Yes Yes
2004QD14 O C H 2016-12-02.09501 1.000E-05 23:28:18.190 1.500E-01 0.500 F -0.231 0.468 -12° 09' 51.80" 1.000E-01 0.500 F 0.353 -0.642 o 691 1.60 Yes No
2016SH45 O C 2016-12-02.09731 1.000E-05 23:59:33.550 1.500E-01 0.500 F -0.093 0.024 -18° 40' 16.00" 1.000E-01 0.500 F 0.099 0.361 20.2 V 0.70 -0.13 o 691 0.73 Yes Yes
1999AQ10 O C 2016-12-02.10049 1.000E-05 23:16:39.020 1.500E-01 0.500 F -0.053 0.122 +23° 49' 37.30" 1.000E-01 0.500 F 0.268 -0.313 20.9 V 0.70 0.89 o 691 0.67 Yes Yes
Phaethon O C 2016-12-02.10049 1.000E-05 23:13:04.930 1.500E-01 0.500 F -0.063 -0.081 +24° 13' 25.60" 1.000E-01 0.500 F 0.305 0.000 17.6 V 0.70 0.23 o 691 0.16 Yes Yes
2004QD14 O C H 2016-12-02.10366 1.000E-05 23:28:17.540 1.500E-01 0.500 F -0.231 -0.404 -12° 09' 42.00" 1.000E-01 0.500 F 0.353 0.074 20.7 V 0.70 0.23 o 691 0.83 Yes Yes
2016SH45 O C 2016-12-02.10596 1.000E-05 23:59:35.530 1.500E-01 0.500 F -0.093 -0.813 -18° 39' 53.90" 1.000E-01 0.500 F 0.099 0.223 20.1 V 0.70 -0.23 o 691 1.70 Yes Yes
1999AQ10 O C 2016-12-02.10920 1.000E-05 23:16:40.930 1.500E-01 0.500 F -0.053 0.055 +23° 49' 36.00" 1.000E-01 0.500 F 0.268 0.002 20.0 V 0.70 -0.01 o 691 0.11 Yes Yes
Phaethon O C 2016-12-02.10920 1.000E-05 23:13:05.570 1.500E-01 0.500 F -0.063 -0.160 +24° 13' 16.90" 1.000E-01 0.500 F 0.305 0.009 17.6 V 0.70 0.23 o 691 0.32 Yes Yes
2004QD14 O C H 2016-12-02.11240 1.000E-05 23:28:16.930 1.500E-01 0.500 F -0.231 -0.611 -12° 09' 33.00" 1.000E-01 0.500 F 0.353 -0.120 20.5 V 0.70 0.03 o 691 1.25 Yes Yes
2016SH45 O C 2016-12-02.11467 1.000E-05 23:59:37.590 1.500E-01 0.500 F -0.093 -0.712 -18° 39' 31.50" 1.000E-01 0.500 F 0.099 0.217 20.6 V 0.70 0.27 o 691 1.50 Yes Yes
2003WR21 O C 2016-12-02.11810 1.000E-05 01:47:48.290 1.500E-01 0.500 F -0.317 -0.297 -04° 20' 12.60" 1.000E-01 0.500 F 0.090 0.003 19.7 V 0.70 0.17 o 691 0.60 Yes Yes
2003WR21 O C 2016-12-02.12530 1.000E-05 01:47:47.480 1.500E-01 0.500 F -0.317 -0.073 -04° 20' 06.20" 1.000E-01 0.500 F 0.090 -0.213 19.7 V 0.70 0.17 o 691 0.45 Yes Yes
2003WR21 O C 2016-12-02.13253 1.000E-05 01:47:46.700 1.500E-01 0.500 F -0.317 0.662 -04° 19' 59.40" 1.000E-01 0.500 F 0.090 -0.061 19.6 V 0.70 0.07 o 691 1.34 Yes Yes
2007CA19 O C H 2016-12-04.06237 1.000E-05 22:59:39.400 1.500E-01 0.500 F -0.181 0.522 -14° 59' 15.60" 1.000E-01 0.500 F 0.260 -0.437 o 691 1.37 Yes No
2007CA19 O C H 2016-12-04.06465 1.000E-05 22:59:39.910 1.500E-01 0.500 F -0.181 -0.096 -14° 59' 12.80" 1.000E-01 0.500 F 0.260 -0.838 o 691 1.70 Yes No
2007CA19 O C H 2016-12-04.06698 1.000E-05 22:59:40.460 1.500E-01 0.500 F -0.181 -0.310 -14° 59' 09.10" 1.000E-01 0.500 F 0.260 -0.410 o 691 1.03 Yes No
2012UA34 O C 2016-12-04.08606 1.000E-05 23:21:51.840 1.500E-01 0.500 F -0.127 -0.262 +18° 44' 26.20" 1.000E-01 0.500 F 0.335 0.233 20.6 V 0.70 -0.41 o 691 0.70 Yes Yes
2012UA34 O C 2016-12-04.08973 1.000E-05 23:21:52.230 1.500E-01 0.500 F -0.127 0.096 +18° 44' 24.50" 1.000E-01 0.500 F 0.335 -0.375 20.7 V 0.70 -0.31 o 691 0.77 Yes Yes
2012UA34 O C 2016-12-04.09341 1.000E-05 23:21:52.560 1.500E-01 0.500 F -0.127 -0.412 +18° 44' 23.60" 1.000E-01 0.500 F 0.335 -0.177 20.6 V 0.70 -0.41 o 691 0.90 Yes Yes
1999AQ10 O C 2016-12-04.10184 1.000E-05 23:24:15.500 1.500E-01 0.500 F -0.096 0.058 +23° 43' 51.20" 1.000E-01 0.500 F 0.123 -0.065 20.2 V 0.70 0.11 o 691 0.17 Yes Yes
1999AQ10 O C 2016-12-04.10448 1.000E-05 23:24:16.040 1.500E-01 0.500 F -0.096 -0.253 +23° 43' 50.60" 1.000E-01 0.500 F 0.123 -0.196 20.4 V 0.70 0.31 o 691 0.64 Yes Yes
1999AQ10 O C 2016-12-04.10714 1.000E-05 23:24:16.590 1.500E-01 0.500 F -0.096 -0.486 +23° 43' 50.30" 1.000E-01 0.500 F 0.123 -0.020 20.8 V 0.70 0.71 o 691 0.97 Yes Yes
2016WB2 O C 2016-12-04.13475 1.000E-05 01:36:06.860 1.500E-01 0.500 F -0.346 -0.510 +18° 34' 52.40" 1.000E-01 0.500 F 0.277 0.128 21.3 V 0.70 -0.04 o 691 1.06 Yes Yes
2003WR21 O C 2016-12-04.13981 1.000E-05 01:44:20.980 1.500E-01 0.500 F -0.296 -0.093 -03° 48' 13.60" 1.000E-01 0.500 F 0.129 -0.117 19.5 V 0.70 -0.09 o 691 0.30 Yes Yes
2016WB2 O C 2016-12-04.14301 1.000E-05 01:36:06.150 1.500E-01 0.500 F -0.346 -0.951 +18° 34' 57.90" 1.000E-01 0.500 F 0.277 0.422 21.2 V 0.70 -0.14 o 691 2.09 Yes Yes
2003WR21 O C 2016-12-04.14807 1.000E-05 01:44:20.110 1.500E-01 0.500 F -0.296 -0.133 -03° 48' 05.60" 1.000E-01 0.500 F 0.129 -0.159 19.5 V 0.70 -0.09 o 691 0.42 Yes Yes
2016WB2 O C 2016-12-04.15124 1.000E-05 01:36:05.550 1.500E-01 0.500 F -0.346 0.140 +18° 35' 02.90" 1.000E-01 0.500 F 0.277 0.242 21.2 V 0.70 -0.14 o 691 0.56 Yes Yes
2003WR21 O C 2016-12-04.15630 1.000E-05 01:44:19.240 1.500E-01 0.500 F -0.296 -0.216 -03° 47' 57.50" 1.000E-01 0.500 F 0.129 -0.076 19.4 V 0.70 -0.19 o 691 0.46 Yes Yes
2016LX48 O C 2016-12-04.20648 1.000E-05 01:59:28.390 1.500E-01 0.500 F -0.179 -0.246 +25° 39' 22.10" 1.000E-01 0.500 F 0.243 -0.042 20.3 V 0.70 -0.42 o 691 0.50 Yes Yes
2016LX48 O C 2016-12-04.21853 1.000E-05 01:59:29.010 1.500E-01 0.500 F -0.179 -0.290 +25° 39' 17.50" 1.000E-01 0.500 F 0.243 -0.062 20.3 V 0.70 -0.42 o 691 0.59 Yes Yes
2016LX48 O C 2016-12-04.23046 1.000E-05 01:59:29.640 1.500E-01 0.500 F -0.179 -0.126 +25° 39' 13.00" 1.000E-01 0.500 F 0.243 -0.004 20.5 V 0.70 -0.22 o 691 0.25 Yes Yes
2010XX72 O C 2016-12-04.25563 1.000E-05 02:46:27.640 1.500E-01 0.500 F -0.069 -0.119 +30° 46' 20.30" 1.000E-01 0.500 F 0.282 -0.054 20.0 V 0.70 0.12 o 691 0.27 Yes Yes
2012UK171 O C 2016-12-04.25849 1.000E-05 02:58:41.840 1.500E-01 0.500 F -0.235 -0.722 +17° 08' 09.30" 1.000E-01 0.500 F 0.300 -0.042 19.8 V 0.70 -0.04 o 691 1.45 Yes Yes
2016WX8 O C 2016-12-04.26134 1.000E-05 03:10:31.370 1.500E-01 0.500 F -0.183 -0.314 +26° 02' 39.50" 1.000E-01 0.500 F 0.269 0.126 20.9 V 0.70 -0.04 o 691 0.69 Yes Yes
2010XX72 O C 2016-12-04.26451 1.000E-05 02:46:25.660 1.500E-01 0.500 F -0.069 -0.154 +30° 45' 56.30" 1.000E-01 0.500 F 0.282 -0.092 19.8 V 0.70 -0.08 o 691 0.37 Yes Yes
2012UK171 O C 2016-12-04.26722 1.000E-05 02:58:37.900 1.500E-01 0.500 F -0.235 0.007 +17° 07' 44.50" 1.000E-01 0.500 F 0.300 -0.090 19.4 V 0.70 -0.44 o 691 0.18 Yes Yes
2016WX8 O C 2016-12-04.27007 1.000E-05 03:10:32.400 1.500E-01 0.500 F -0.183 0.229 +26° 02' 14.70" 1.000E-01 0.500 F 0.269 -0.024 20.6 V 0.70 -0.34 o 691 0.47 Yes Yes
2010XX72 O C 2016-12-04.27318 1.000E-05 02:46:23.720 1.500E-01 0.500 F -0.069 -0.323 +30° 45' 32.80" 1.000E-01 0.500 F 0.282 -0.141 20.0 V 0.70 0.12 o 691 0.72 Yes Yes
2012UK171 O C 2016-12-04.27575 1.000E-05 02:58:33.970 1.500E-01 0.500 F -0.235 -0.531 +17° 07' 20.30" 1.000E-01 0.500 F 0.300 -0.022 19.8 V 0.70 -0.05 o 691 1.07 Yes Yes
2016WX8 O C 2016-12-04.27860 1.000E-05 03:10:33.340 1.500E-01 0.500 F -0.183 -0.155 +26° 01' 50.00" 1.000E-01 0.500 F 0.269 -0.601 20.6 V 0.70 -0.34 o 691 1.27 Yes Yes
2006WO3 O C 2016-12-04.32574 1.000E-05 04:06:20.360 1.500E-01 0.500 F -0.078 -0.104 +24° 48' 59.30" 1.000E-01 0.500 F 0.269 -0.021 18.6 V 0.70 0.22 o 691 0.21 Yes Yes
2006WO3 O C 2016-12-04.33242 1.000E-05 04:06:17.060 1.500E-01 0.500 F -0.078 0.081 +24° 48' 09.80" 1.000E-01 0.500 F 0.269 -0.037 18.5 V 0.70 0.12 o 691 0.18 Yes Yes
2006WO3 O C 2016-12-04.33901 1.000E-05 04:06:13.770 1.500E-01 0.500 F -0.078 -0.255 +24° 47' 20.80" 1.000E-01 0.500 F 0.269 -0.194 18.5 V 0.70 0.12 o 691 0.65 Yes Yes
2016WG9 O C 2016-12-04.35263 1.000E-05 05:17:59.450 1.500E-01 0.500 F -0.043 0.052 +09° 00' 53.80" 1.000E-01 0.500 F 0.191 0.183 20.5 V 0.70 -0.51 o 691 0.38 Yes Yes
2016WG9 O C 2016-12-04.36004 1.000E-05 05:17:58.400 1.500E-01 0.500 F -0.043 -0.428 +09° 01' 01.30" 1.000E-01 0.500 F 0.191 0.521 20.6 V 0.70 -0.41 o 691 1.36 Yes Yes
2016WG9 O C 2016-12-04.36745 1.000E-05 05:17:57.410 1.500E-01 0.500 F -0.043 -0.030 +09° 01' 07.80" 1.000E-01 0.500 F 0.191 -0.135 21.0 V 0.70 -0.01 o 691 0.28 Yes Yes
2014ME19 O C 2016-12-04.37272 1.000E-05 05:38:44.510 1.500E-01 0.500 F -0.042 -0.493 -21° 37' 45.70" 1.000E-01 0.500 F -0.132 0.135 19.8 V 0.70 -0.39 o 691 1.06 Yes Yes
2014ME19 O C 2016-12-04.37507 1.000E-05 05:38:44.280 1.500E-01 0.500 F -0.042 -0.315 -21° 37' 40.80" 1.000E-01 0.500 F -0.132 0.225 19.9 V 0.70 -0.29 o 691 0.80 Yes Yes
2014ME19 O C 2016-12-04.37743 1.000E-05 05:38:44.050 1.500E-01 0.500 F -0.042 -0.124 -21° 37' 36.40" 1.000E-01 0.500 F -0.132 -0.208 20.2 V 0.70 0.01 o 691 0.50 Yes Yes
2010CG18 O C 2016-12-04.42403 1.000E-05 09:28:07.910 1.500E-01 0.500 F 0.167 -0.293 +19° 44' 27.70" 1.000E-01 0.500 F 0.239 0.059 19.8 V 0.70 -0.07 o 691 0.60 Yes Yes
2010CG18 O C 2016-12-04.42862 1.000E-05 09:28:08.740 1.500E-01 0.500 F 0.167 -0.366 +19° 44' 36.00" 1.000E-01 0.500 F 0.239 0.106 19.7 V 0.70 -0.17 o 691 0.77 Yes Yes
2010CG18 O C 2016-12-04.43322 1.000E-05 09:28:09.580 1.500E-01 0.500 F 0.167 -0.312 +19° 44' 44.10" 1.000E-01 0.500 F 0.239 -0.059 19.7 V 0.70 -0.17 o 691 0.64 Yes Yes
2007XJ20 O C 2016-12-04.45150 1.000E-05 10:26:19.490 1.500E-01 0.500 F 0.170 0.036 +25° 49' 02.30" 1.000E-01 0.500 F 0.260 -0.013 19.9 V 0.70 -0.17 o 691 0.08 Yes Yes
2007XJ20 O C 2016-12-04.45757 1.000E-05 10:26:21.220 1.500E-01 0.500 F 0.170 0.147 +25° 49' 00.70" 1.000E-01 0.500 F 0.260 -0.145 20.0 V 0.70 -0.07 o 691 0.43 Yes Yes
2007XJ20 O C 2016-12-04.46359 1.000E-05 10:26:22.860 1.500E-01 0.500 F 0.170 -0.761 +25° 48' 59.40" 1.000E-01 0.500 F 0.260 0.019 20.0 V 0.70 -0.07 o 691 1.59 Yes Yes
2016PN38 O C 2016-12-04.46869 1.000E-05 10:50:08.310 1.500E-01 0.500 F 0.178 -0.292 +29° 03' 45.00" 1.000E-01 0.500 F 0.265 -0.102 20.5 V 0.70 0.35 o 691 0.64 Yes Yes
2016VV3 O C 2016-12-04.47442 1.000E-05 11:06:15.320 1.500E-01 0.500 F 0.119 0.480 +10° 16' 10.80" 1.000E-01 0.500 F 0.158 0.065 21.3 V 0.70 0.43 o 691 0.97 Yes Yes
2016PN38 O C 2016-12-04.47991 1.000E-05 10:50:06.180 1.500E-01 0.500 F 0.178 0.066 +29° 03' 41.00" 1.000E-01 0.500 F 0.265 -0.106 20.0 V 0.70 -0.15 o 691 0.25 Yes Yes
2016VV3 O C 2016-12-04.48567 1.000E-05 11:06:18.000 1.500E-01 0.500 F 0.119 -0.587 +10° 15' 59.30" 1.000E-01 0.500 F 0.158 -0.533 21.0 V 0.70 0.13 o 691 1.59 Yes Yes
2016PN38 O C 2016-12-04.49109 1.000E-05 10:50:04.000 1.500E-01 0.500 F 0.178 -0.248 +29° 03' 37.10" 1.000E-01 0.500 F 0.265 0.059 20.5 V 0.70 0.35 o 691 0.52 Yes Yes
2016VV3 O C 2016-12-04.49691 1.000E-05 11:06:20.800 1.500E-01 0.500 F 0.119 0.190 +10° 15' 48.70" 1.000E-01 0.500 F 0.158 -0.232 20.5 V 0.70 -0.37 o 691 0.60 Yes Yes
2015YE18 O C 2016-12-04.50833 1.000E-05 10:32:30.800 1.500E-01 0.500 F 0.094 -1.358 -20° 41' 43.30" 1.000E-01 0.500 F -0.050 -0.056 19.4 V 0.70 0.13 o 691 2.72 Yes Yes
2015YE18 O C 2016-12-04.51292 1.000E-05 10:32:30.530 1.500E-01 0.500 F 0.094 0.234 -20° 41' 57.20" 1.000E-01 0.500 F -0.050 -1.060 19.1 V 0.70 -0.17 o 691 2.18 Yes Yes
2015YE18 O C 2016-12-04.51752 1.000E-05 10:32:30.120 1.500E-01 0.500 F 0.094 -0.124 -20° 42' 08.70" 1.000E-01 0.500 F -0.050 0.360 19.2 V 0.70 -0.07 o 691 0.76 Yes Yes
2007CA19 O C H 2016-12-05.06641 1.000E-05 23:03:42.400 1.500E-01 0.500 F -0.179 0.951 -14° 35' 55.50" 1.000E-01 0.500 F 0.224 0.127 o 691 1.94 Yes No
2007CA19 O C H 2016-12-05.06869 1.000E-05 23:03:42.890 1.500E-01 0.500 F -0.179 0.280 -14° 35' 52.70" 1.000E-01 0.500 F 0.224 -0.228 o 691 0.73 Yes No
2007CA19 O C H 2016-12-05.07100 1.000E-05 23:03:43.470 1.500E-01 0.500 F -0.179 0.812 -14° 35' 49.60" 1.000E-01 0.500 F 0.224 -0.325 o 691 1.76 Yes No
2004QD14 O C 2016-12-05.07424 1.000E-05 23:25:40.920 1.500E-01 0.500 F -0.244 -1.016 -11° 17' 19.20" 1.000E-01 0.500 F 0.435 0.153 20.3 V 0.70 -0.26 o 691 2.07 Yes Yes
2012RG3 O C H 2016-12-05.07725 1.000E-05 23:35:18.890 1.500E-01 0.500 F -0.113 -0.216 -24° 55' 29.40" 1.000E-01 0.500 F 0.400 -1.330 o 691 2.70 Yes No
2004QD14 O C 2016-12-05.08022 1.000E-05 23:25:40.600 1.500E-01 0.500 F -0.244 -0.607 -11° 17' 13.50" 1.000E-01 0.500 F 0.435 -0.520 20.0 V 0.70 -0.56 o 691 1.61 Yes Yes
2012RG3 O C H 2016-12-05.08323 1.000E-05 23:35:19.110 1.500E-01 0.500 F -0.113 0.629 -24° 55' 24.00" 1.000E-01 0.500 F 0.400 -0.823 o 691 2.07 Yes No
2004QD14 O C 2016-12-05.08620 1.000E-05 23:25:40.280 1.500E-01 0.500 F -0.244 -0.199 -11° 17' 06.60" 1.000E-01 0.500 F 0.435 0.000 20.5 V 0.70 -0.06 o 691 0.40 Yes Yes
2012RG3 O C H 2016-12-05.08921 1.000E-05 23:35:19.290 1.500E-01 0.500 F -0.113 0.929 -24° 55' 17.90" 1.000E-01 0.500 F 0.400 0.381 o 691 2.01 Yes No
2016WJ8 O C H 2016-12-05.09406 1.000E-05 22:23:16.500 1.500E-01 0.500 F -0.030 1.965 +14° 34' 02.90" 1.000E-01 0.500 F 0.368 -0.655 o 691 4.12 No No
2012UA34 O C H 2016-12-05.09771 1.000E-05 23:23:37.070 1.500E-01 0.500 F -0.162 0.333 +18° 39' 40.20" 1.000E-01 0.500 F 0.304 -0.416 21.6 V 0.70 0.53 o 691 1.07 Yes Yes
1999AQ10 O C H 2016-12-05.10071 1.000E-05 23:27:58.220 1.500E-01 0.500 F -0.080 0.294 +23° 41' 04.10" 1.000E-01 0.500 F 0.150 -0.123 20.4 V 0.70 0.28 o 691 0.64 Yes Yes
2016WJ8 O C H 2016-12-05.10382 1.000E-05 22:23:18.610 1.500E-01 0.500 F -0.030 1.244 +14° 34' 03.90" 1.000E-01 0.500 F 0.368 -0.928 o 691 3.09 No No
2012UA34 O C H 2016-12-05.10745 1.000E-05 23:23:38.000 1.500E-01 0.500 F -0.162 -0.003 +18° 39' 37.80" 1.000E-01 0.500 F 0.304 -0.175 21.0 V 0.70 -0.07 o 691 0.35 Yes Yes
1999AQ10 O C H 2016-12-05.11044 1.000E-05 23:28:00.230 1.500E-01 0.500 F -0.080 -0.170 +23° 41' 02.70" 1.000E-01 0.500 F 0.150 0.174 20.6 V 0.70 0.48 o 691 0.49 Yes Yes
2016WJ8 O C H 2016-12-05.11353 1.000E-05 22:23:20.700 1.500E-01 0.500 F -0.030 0.388 +14° 34' 05.40" 1.000E-01 0.500 F 0.368 -0.690 o 691 1.59 Yes No
2012UA34 O C H 2016-12-05.11716 1.000E-05 23:23:38.940 1.500E-01 0.500 F -0.162 -0.162 +18° 39' 35.20" 1.000E-01 0.500 F 0.304 -0.131 21.1 V 0.70 0.03 o 691 0.41 Yes Yes
1999AQ10 O C H 2016-12-05.12016 1.000E-05 23:28:02.360 1.500E-01 0.500 F -0.080 1.030 +23° 40' 59.90" 1.000E-01 0.500 F 0.150 -0.896 o 691 2.73 Yes No
2016SH45 O C 2016-12-05.12450 1.000E-05 00:11:37.810 1.500E-01 0.500 F -0.291 -0.387 -16° 29' 41.70" 1.000E-01 0.500 F 0.154 0.184 20.3 V 0.70 -0.07 o 691 0.86 Yes Yes
2005AY28 O C H 2016-12-05.12913 1.000E-05 01:18:34.450 1.500E-01 0.500 F -0.261 0.132 -13° 46' 00.00" 1.000E-01 0.500 F 0.253 -1.705 o 691 3.40 No No
2016SH45 O C 2016-12-05.13191 1.000E-05 00:11:39.550 1.500E-01 0.500 F -0.291 0.057 -16° 29' 22.90" 1.000E-01 0.500 F 0.154 -0.298 20.5 V 0.70 0.13 o 691 0.61 Yes Yes
2005AY28 O C H 2016-12-05.13654 1.000E-05 01:18:35.260 1.500E-01 0.500 F -0.261 0.376 -13° 45' 30.90" 1.000E-01 0.500 F 0.253 -1.573 o 691 3.22 No No
2016SH45 O C 2016-12-05.13932 1.000E-05 00:11:41.260 1.500E-01 0.500 F -0.291 0.068 -16° 29' 03.50" 1.000E-01 0.500 F 0.154 -0.189 20.2 V 0.70 -0.17 o 691 0.40 Yes Yes
2005AY28 O C H 2016-12-05.14395 1.000E-05 01:18:36.080 1.500E-01 0.500 F -0.261 0.779 -13° 45' 00.20" 1.000E-01 0.500 F 0.253 0.159 o 691 1.60 Yes No
2016WB2 O C H 2016-12-05.14947 1.000E-05 01:34:48.940 1.500E-01 0.500 F -0.346 0.509 +18° 45' 29.50" 1.000E-01 0.500 F 0.277 -0.537 21.3 V 0.70 -0.06 o 691 1.49 Yes Yes
2003WR21 O C 2016-12-05.15264 1.000E-05 01:42:44.700 1.500E-01 0.500 F -0.296 0.153 -03° 31' 33.30" 1.000E-01 0.500 F 0.129 0.002 19.8 V 0.70 0.18 o 691 0.31 Yes Yes
2016WP O C 2016-12-05.15486 1.000E-05 01:51:12.900 1.500E-01 0.500 F -0.074 -0.180 +09° 12' 32.20" 1.000E-01 0.500 F 0.211 -0.154 20.2 V 0.70 -0.08 o 691 0.48 Yes Yes
2016LX48 O C 2016-12-05.15812 1.000E-05 02:00:22.770 1.500E-01 0.500 F -0.179 0.067 +25° 33' 31.20" 1.000E-01 0.500 F 0.243 -0.096 20.4 V 0.70 -0.37 o 691 0.23 Yes Yes
2016WB2 O C H 2016-12-05.16214 1.000E-05 01:34:47.920 1.500E-01 0.500 F -0.346 0.246 +18° 45' 37.30" 1.000E-01 0.500 F 0.277 -0.745 21.4 V 0.70 0.04 o 691 1.58 Yes Yes
2003WR21 O C 2016-12-05.16530 1.000E-05 01:42:43.400 1.500E-01 0.500 F -0.296 -0.342 -03° 31' 20.60" 1.000E-01 0.500 F 0.129 0.055 19.7 V 0.70 0.08 o 691 0.70 Yes Yes
2016WP O C 2016-12-05.16749 1.000E-05 01:51:18.040 1.500E-01 0.500 F -0.074 -0.587 +09° 12' 36.60" 1.000E-01 0.500 F 0.211 -0.497 20.0 V 0.70 -0.28 o 691 1.57 Yes Yes
2016LX48 O C 2016-12-05.17061 1.000E-05 02:00:23.410 1.500E-01 0.500 F -0.179 -0.158 +25° 33' 26.50" 1.000E-01 0.500 F 0.243 -0.335 20.5 V 0.70 -0.27 o 691 0.74 Yes Yes
2003WR21 O C 2016-12-05.17787 1.000E-05 01:42:42.170 1.500E-01 0.500 F -0.296 0.071 -03° 31' 08.30" 1.000E-01 0.500 F 0.129 -0.213 19.9 V 0.70 0.28 o 691 0.45 Yes Yes
2016WP O C 2016-12-05.18010 1.000E-05 01:51:23.230 1.500E-01 0.500 F -0.074 -0.065 +09° 12' 41.70" 1.000E-01 0.500 F 0.211 -0.094 20.5 V 0.70 0.22 o 691 0.23 Yes Yes
2016LX48 O C 2016-12-05.18302 1.000E-05 02:00:24.030 1.500E-01 0.500 F -0.179 -0.593 +25° 33' 22.10" 1.000E-01 0.500 F 0.243 -0.279 20.6 V 0.70 -0.17 o 691 1.31 Yes Yes
2016XM23 O C H 2016-12-05.18728 1.000E-05 02:09:26.690 1.500E-01 0.500 F -0.318 0.908 +13° 07' 07.00" 1.000E-01 0.500 F 0.238 -0.868 o 691 2.64 Yes No
2016XM23 O C H 2016-12-05.19557 1.000E-05 02:09:25.810 1.500E-01 0.500 F -0.318 -0.263 +13° 07' 41.00" 1.000E-01 0.500 F 0.238 0.183 o 691 0.67 Yes No
2016XM23 O C H 2016-12-05.20388 1.000E-05 02:09:25.090 1.500E-01 0.500 F -0.318 0.922 +13° 08' 11.20" 1.000E-01 0.500 F 0.238 -2.616 o 691 5.30 No No
2012UK171 O C 2016-12-05.21766 1.000E-05 02:52:20.150 1.500E-01 0.500 F -0.235 0.132 +16° 24' 09.80" 1.000E-01 0.500 F 0.341 -0.493 19.5 V 0.70 -0.46 o 691 1.02 Yes Yes
2016WX8 O C H 2016-12-05.22023 1.000E-05 03:12:34.200 1.500E-01 0.500 F -0.176 -0.165 +25° 17' 17.00" 1.000E-01 0.500 F 0.249 -0.389 21.2 V 0.70 0.27 o 691 0.87 Yes Yes
2010XX72 O C 2016-12-05.22305 1.000E-05 02:43:17.110 1.500E-01 0.500 F -0.089 0.090 +30° 03' 41.50" 1.000E-01 0.500 F 0.276 -0.114 19.8 V 0.70 -0.14 o 691 0.30 Yes Yes
2012UK171 O C 2016-12-05.22927 1.000E-05 02:52:15.210 1.500E-01 0.500 F -0.235 1.305 +16° 23' 38.70" 1.000E-01 0.500 F 0.341 -0.166 19.6 V 0.70 -0.36 o 691 2.64 Yes Yes
2016WX8 O C H 2016-12-05.23170 1.000E-05 03:12:35.590 1.500E-01 0.500 F -0.176 0.522 +25° 16' 44.80" 1.000E-01 0.500 F 0.249 0.233 21.0 V 0.70 0.07 o 691 1.17 Yes Yes
2010XX72 O C 2016-12-05.23508 1.000E-05 02:43:14.620 1.500E-01 0.500 F -0.089 0.539 +30° 03' 10.20" 1.000E-01 0.500 F 0.276 0.232 19.9 V 0.70 -0.04 o 691 1.20 Yes Yes
2012UK171 O C 2016-12-05.24144 1.000E-05 02:52:09.860 1.500E-01 0.500 F -0.235 -0.017 +16° 23' 06.00" 1.000E-01 0.500 F 0.341 0.231 20.6 V 0.70 0.64 o 691 0.46 Yes Yes
2016WX8 O C H 2016-12-05.24374 1.000E-05 03:12:36.990 1.500E-01 0.500 F -0.176 0.439 +25° 16' 09.40" 1.000E-01 0.500 F 0.249 -0.642 21.2 V 0.70 0.27 o 691 1.60 Yes Yes
2010XX72 O C 2016-12-05.24673 1.000E-05 02:43:12.140 1.500E-01 0.500 F -0.089 0.034 +30° 02' 39.20" 1.000E-01 0.500 F 0.276 -0.023 19.8 V 0.70 -0.14 o 691 0.08 Yes Yes
2016XA2 O C 2016-12-05.25006 1.000E-05 03:08:07.280 1.500E-01 0.500 F -0.183 -0.048 +26° 25' 19.00" 1.000E-01 0.500 F 0.269 -0.458 20.1 V 0.70 0.18 o 691 0.94 Yes Yes
2016WJ1 O C 2016-12-05.25234 1.000E-05 03:18:46.150 1.500E-01 0.500 F -0.246 -0.231 +12° 24' 41.20" 1.000E-01 0.500 F 0.273 -0.167 17.6 V 0.70 -0.03 o 691 0.57 Yes Yes
2007WV4 O C 2016-12-05.25445 1.000E-05 03:19:52.480 1.500E-01 0.500 F -0.204 -0.104 +26° 16' 25.90" 1.000E-01 0.500 F 0.212 -0.022 19.9 V 0.70 -0.36 o 691 0.21 Yes Yes
2016XA2 O C 2016-12-05.25660 1.000E-05 03:08:04.350 1.500E-01 0.500 F -0.183 -0.297 +26° 25' 05.30" 1.000E-01 0.500 F 0.269 -0.232 20.0 V 0.70 0.08 o 691 0.77 Yes Yes
2016WJ1 O C 2016-12-05.25892 1.000E-05 03:18:42.310 1.500E-01 0.500 F -0.246 0.161 +12° 24' 29.60" 1.000E-01 0.500 F 0.273 -0.040 17.5 V 0.70 -0.13 o 691 0.33 Yes Yes
2007WV4 O C 2016-12-05.26111 1.000E-05 03:19:51.380 1.500E-01 0.500 F -0.204 -0.442 +26° 16' 04.50" 1.000E-01 0.500 F 0.212 -0.129 19.9 V 0.70 -0.36 o 691 0.93 Yes Yes
2016XA2 O C 2016-12-05.26326 1.000E-05 03:08:01.380 1.500E-01 0.500 F -0.183 -0.356 +26° 24' 51.50" 1.000E-01 0.500 F 0.269 0.185 20.0 V 0.70 0.08 o 691 0.82 Yes Yes
2016WJ1 O C 2016-12-05.26553 1.000E-05 03:18:38.390 1.500E-01 0.500 F -0.246 -0.329 +12° 24' 18.00" 1.000E-01 0.500 F 0.273 0.180 17.3 V 0.70 -0.33 o 691 0.75 Yes Yes
2007WV4 O C 2016-12-05.26777 1.000E-05 03:19:50.330 1.500E-01 0.500 F -0.204 -0.113 +26° 15' 43.10" 1.000E-01 0.500 F 0.212 -0.225 20.0 V 0.70 -0.26 o 691 0.50 Yes Yes
2012WK4 O C 2016-12-05.32065 1.000E-05 04:28:20.010 1.500E-01 0.500 F -0.051 -1.642 +03° 44' 49.20" 1.000E-01 0.500 F 0.275 -0.548 20.0 V 0.70 -0.32 o 691 3.43 No Yes
2012WK4 O C 2016-12-05.32293 1.000E-05 04:28:19.740 1.500E-01 0.500 F -0.051 -0.619 +03° 44' 50.20" 1.000E-01 0.500 F 0.275 -1.135 20.1 V 0.70 -0.22 o 691 2.61 Yes Yes
2012WK4 O C 2016-12-05.32526 1.000E-05 04:28:19.520 1.500E-01 0.500 F -0.051 1.262 +03° 44' 51.50" 1.000E-01 0.500 F 0.275 -1.456 19.9 V 0.70 -0.42 o 691 3.82 No Yes
2016WG9 O C H 2016-12-05.33120 1.000E-05 05:15:54.040 1.500E-01 0.500 F -0.078 -0.565 +09° 16' 34.20" 1.000E-01 0.500 F 0.141 0.030 o 691 1.14 Yes No
2014ME19 O C 2016-12-05.33773 1.000E-05 05:37:13.770 1.500E-01 0.500 F -0.042 0.088 -21° 04' 03.20" 1.000E-01 0.500 F -0.132 0.213 20.2 V 0.70 0.06 o 691 0.48 Yes Yes
2016WG9 O C H 2016-12-05.34114 1.000E-05 05:15:52.790 1.500E-01 0.500 F -0.078 0.561 +09° 16' 42.50" 1.000E-01 0.500 F 0.141 -1.120 o 691 2.54 Yes No

[1-200] [201-400] [401-600] [601-800] [801-1000] [1001-1200] [1201-1400] [1401-1600] [1601-1800] [1801-2000] [2001-2200] [2201-2400] [2401-2600] [2601-2800] [2801-3000] [3001-3200] [3201-3400] [3401-3600] [3601-3800] [3801-4000] [4001-4200] [4201-4400] [4401-4600] [4601-4800] [4801-5000] [5001-5200] [5201-5400] [5401-5600] [5601-5800] [5801-6000] [6001-6200] [6201-6400] [6401-6600] [6601-6800] [6801-7000] [7001-7200] [7201-7400] [7401-7600] [7601-7800] [7801-8000] [8001-8200] [8201-8400] [8401-8600] [8601-8800] [8801-9000] [9001-9200] [9201-9400] [9401-9600] [9601-9800] [9801-10000] [10001-10200] [10201-10400] [10401-10600] [10601-10800] [10801-11000] [11001-11200] [11201-11400] [11401-11600] [11601-11800] [11801-12000] [12001-12200] [12201-12400] [12401-12600] [12601-12800] [12801-13000] [13001-13200] [13201-13400] [13401-13600] [13601-13800] [13801-14000] [14001-14200] [14201-14400] [14401-14600] [14601-14800] [14801-15000] [15001-15200] [15201-15400] [15401-15600] [15601-15800] [15801-16000] [16001-16200] [16201-16400] [16401-16600] [16601-16800] [16801-17000] [17001-17200] [17201-17400] [17401-17600] [17601-17800] [17801-18000] [18001-18200] [18201-18400] [18401-18600] [18601-18800] [18801-19000] [19001-19200] [19201-19400] [19401-19600] [19601-19800] [19801-20000] [20001-20200] [20201-20400] [20401-20600] [20601-20800] [20801-21000] [21001-21200] [21201-21400] [21401-21600] [21601-21800] [21801-22000] [22001-22200] [22201-22400] [22401-22600] [22601-22800] [22801-23000] [23001-23200] [23201-23400] [23401-23600] [23601-23800] [23801-24000] [24001-24200] [24201-24400] [24401-24600] [24601-24800] [24801-25000] [25001-25200] [25201-25400] [25401-25600] [25601-25800] [25801-26000] [26001-26200] [26201-26400] [26401-26600] [26601-26800] [26801-27000] [27001-27200] [27201-27400] [27401-27600] [27601-27800] [27801-28000] [28001-28200] [28201-28400] [28401-28600] [28601-28800] [28801-29000] [29001-29200] [29201-29400] [29401-29600] [29601-29800] [29801-30000] [30001-30200] [30201-30400] [30401-30600] [30601-30800] [30801-31000] [31001-31200] [31201-31400] [31401-31600] [31601-31800] [31801-32000] [32001-32200] [32201-32400] [32401-32600] [32601-32800] [32801-33000] [33001-33200] [33201-33400] [33401-33600] [33601-33800] [33801-34000] [34001-34200] [34201-34400] [34401-34600] [34601-34800] [34801-35000] [35001-35200] [35201-35400] [35401-35600] [35601-35800] [35801-36000] [36001-36200] [36201-36400] [36401-36600] [36601-36800] [36801-37000] [37001-37200] [37201-37400] [37401-37600] [37601-37800] [37801-38000] [38001-38200] [38201-38400] [38401-38600] [38601-38800] [38801-39000] [39001-39200] [39201-39400] [39401-39600] [39601-39800] [39801-40000] [40001-40200] [40201-40400] [40401-40600] [40601-40800] [40801-41000] [41001-41200] [41201-41400] [41401-41600] [41601-41800] [41801-42000] [42001-42200] [42201-42400] [42401-42600] [42601-42800] [42801-43000] [43001-43200] [43201-43400] [43401-43600] [43601-43800] [43801-44000] [44001-44200] [44201-44400] [44401-44600] [44601-44800] [44801-45000] [45001-45200] [45201-45400] [45401-45600] [45601-45800] [45801-46000] [46001-46200] [46201-46400] [46401-46600] [46601-46800] [46801-47000] [47001-47200] [47201-47400] [47401-47600] [47601-47800] [47801-48000] [48001-48200] [48201-48400] [48401-48600] [48601-48800] [48801-49000] [49001-49200] [49201-49400] [49401-49600] [49601-49800] [49801-50000] [50001-50200] [50201-50388]